createdAt,value
2023-03-10T00:01:31.119Z,-0.28
2023-03-10T00:03:59.856Z,-0.37
2023-03-10T00:06:29.280Z,-0.24
2023-03-10T00:08:56.064Z,0.15
2023-03-10T00:11:22.781Z,0.03
2023-03-10T00:13:49.530Z,-0.10
2023-03-10T00:16:22.325Z,-0.14
2023-03-10T00:18:49.632Z,-0.05
2023-03-10T00:21:19.794Z,-0.15
2023-03-10T00:23:47.173Z,-0.27
2023-03-10T00:26:15.924Z,-0.38
2023-03-10T00:28:42.797Z,-0.44
2023-03-10T00:31:15.428Z,-0.43
2023-03-10T00:33:42.772Z,-0.31
2023-03-10T00:36:13.619Z,-0.32
2023-03-10T00:38:41.922Z,-0.29
2023-03-10T00:41:12.078Z,-0.11
2023-03-10T00:43:39.148Z,-0.05
2023-03-10T00:46:06.468Z,0.05
2023-03-10T00:48:33.998Z,0.17
2023-03-10T00:51:01.193Z,0.30
2023-03-10T00:53:28.784Z,0.45
2023-03-10T00:56:04.857Z,0.58
2023-03-10T00:58:33.057Z,0.61
2023-03-10T01:01:00.150Z,0.74
2023-03-10T01:03:27.444Z,0.74
2023-03-10T01:05:55.213Z,0.87
2023-03-10T01:08:22.428Z,0.89
2023-03-10T01:10:49.949Z,0.97
2023-03-10T01:13:18.097Z,0.83
2023-03-10T01:15:44.894Z,0.89
2023-03-10T01:18:11.612Z,1.12
2023-03-10T01:20:38.340Z,1.11
2023-03-10T01:23:05.188Z,1.08
2023-03-10T01:25:32.055Z,0.92
2023-03-10T01:27:58.703Z,0.99
2023-03-10T01:30:25.477Z,1.05
2023-03-10T01:32:52.254Z,1.11
2023-03-10T01:35:19.038Z,1.06
2023-03-10T01:37:45.850Z,1.21
2023-03-10T01:40:16.631Z,1.27
2023-03-10T01:42:43.982Z,1.04
2023-03-10T01:45:30.792Z,0.95
2023-03-10T01:47:57.604Z,0.85
2023-03-10T01:50:24.790Z,0.79
2023-03-10T01:52:58.498Z,0.71
2023-03-10T01:55:29.952Z,0.61
2023-03-10T01:57:57.859Z,0.94
2023-03-10T02:00:26.548Z,0.82
2023-03-10T02:03:12.824Z,0.80
2023-03-10T02:05:45.491Z,0.75
2023-03-10T02:08:12.835Z,0.81
2023-03-10T02:10:39.603Z,0.85
2023-03-10T02:13:06.794Z,0.86
2023-03-10T02:15:33.845Z,0.81
2023-03-10T02:18:03.075Z,0.93
2023-03-10T02:20:45.005Z,0.88
2023-03-10T02:23:19.409Z,0.97
2023-03-10T02:25:55.594Z,0.99
2023-03-10T02:28:23.637Z,0.98
2023-03-10T02:30:53.340Z,0.92
2023-03-10T02:33:24.246Z,0.96
2023-03-10T02:35:51.599Z,0.89
2023-03-10T02:38:18.523Z,0.82
2023-03-10T02:40:45.406Z,0.85
2023-03-10T02:43:12.146Z,0.84
2023-03-10T02:45:41.390Z,0.81
2023-03-10T02:48:14.670Z,0.87
2023-03-10T02:50:44.774Z,0.96
2023-03-10T02:53:16.045Z,1.00
2023-03-10T02:55:42.875Z,0.92
2023-03-10T02:58:10.096Z,1.06
2023-03-10T03:00:39.219Z,0.95
2023-03-10T03:03:07.285Z,0.83
2023-03-10T03:05:34.690Z,0.97
2023-03-10T03:08:01.654Z,0.87
2023-03-10T03:10:30.017Z,0.77
2023-03-10T03:12:57.025Z,1.10
2023-03-10T03:15:26.049Z,1.04
2023-03-10T03:17:54.235Z,1.10
2023-03-10T03:20:21.846Z,1.05
2023-03-10T03:22:48.593Z,1.15
2023-03-10T03:25:18.976Z,1.04
2023-03-10T03:27:46.233Z,1.06
2023-03-10T03:30:22.458Z,1.25
2023-03-10T03:32:49.840Z,1.30
2023-03-10T03:35:29.408Z,1.25
2023-03-10T03:37:56.573Z,1.25
2023-03-10T03:40:25.240Z,1.26
2023-03-10T03:42:53.616Z,1.25
2023-03-10T03:45:23.668Z,1.20
2023-03-10T03:47:50.977Z,1.28
2023-03-10T03:50:19.124Z,1.33
2023-03-10T03:52:46.327Z,1.33
2023-03-10T03:55:16.151Z,1.33
2023-03-10T03:57:45.886Z,1.33
2023-03-10T04:00:19.979Z,1.48
2023-03-10T04:02:47.304Z,1.35
2023-03-10T04:05:14.366Z,1.37
2023-03-10T04:07:42.428Z,1.43
2023-03-10T04:10:12.764Z,1.35
2023-03-10T04:12:39.618Z,1.28
2023-03-10T04:15:08.384Z,1.40
2023-03-10T04:17:36.093Z,1.34
2023-03-10T04:20:08.106Z,1.35
2023-03-10T04:22:36.374Z,1.33
2023-03-10T04:25:04.316Z,1.47
2023-03-10T04:27:31.799Z,1.40
2023-03-10T04:29:58.604Z,1.60
2023-03-10T04:32:25.835Z,1.59
2023-03-10T04:34:52.889Z,1.42
2023-03-10T04:37:21.131Z,1.73
2023-03-10T04:39:47.996Z,1.74
2023-03-10T04:42:14.739Z,1.57
2023-03-10T04:44:41.816Z,1.50
2023-03-10T04:47:08.564Z,1.48
2023-03-10T04:49:37.407Z,1.63
2023-03-10T04:52:05.495Z,1.62
2023-03-10T04:54:32.344Z,1.61
2023-03-10T04:56:59.092Z,1.68
2023-03-10T04:59:25.902Z,1.66
2023-03-10T05:01:52.648Z,1.61
2023-03-10T05:04:19.503Z,1.72
2023-03-10T05:06:50.163Z,1.64
2023-03-10T05:09:17.174Z,1.79
2023-03-10T05:11:43.861Z,1.73
2023-03-10T05:14:12.285Z,1.78
2023-03-10T05:16:39.052Z,1.74
2023-03-10T05:19:06.251Z,1.80
2023-03-10T05:21:33.107Z,1.68
2023-03-10T05:24:03.905Z,1.80
2023-03-10T05:26:33.479Z,1.72
2023-03-10T05:29:03.894Z,1.75
2023-03-10T05:31:30.887Z,1.71
2023-03-10T05:33:57.700Z,1.74
2023-03-10T05:36:24.400Z,1.69
2023-03-10T05:38:51.370Z,1.69
2023-03-10T05:41:18.326Z,1.74
2023-03-10T05:43:45.062Z,1.83
2023-03-10T05:46:12.160Z,1.91
2023-03-10T05:48:39.311Z,1.82
2023-03-10T05:51:08.743Z,1.85
2023-03-10T05:53:37.081Z,1.88
2023-03-10T05:56:18.092Z,1.79
2023-03-10T05:58:46.566Z,1.78
2023-03-10T06:01:14.065Z,1.71
2023-03-10T06:03:40.922Z,1.76
2023-03-10T06:06:07.884Z,1.69
2023-03-10T06:08:35.388Z,1.86
2023-03-10T06:11:02.767Z,1.78
2023-03-10T06:13:29.448Z,1.79
2023-03-10T06:15:58.923Z,1.85
2023-03-10T06:18:26.963Z,1.77
2023-03-10T06:20:54.428Z,1.74
2023-03-10T06:23:22.204Z,1.88
2023-03-10T06:26:00.205Z,1.76
2023-03-10T06:28:32.800Z,1.83
2023-03-10T06:31:01.306Z,1.75
2023-03-10T06:33:29.626Z,1.97
2023-03-10T06:35:57.318Z,1.91
2023-03-10T06:38:24.646Z,2.01
2023-03-10T06:40:51.773Z,2.01
2023-03-10T06:43:18.967Z,1.98
2023-03-10T06:45:46.926Z,1.95
2023-03-10T06:48:14.568Z,1.95
2023-03-10T06:50:49.747Z,2.01
2023-03-10T06:53:19.539Z,2.01
2023-03-10T06:55:57.329Z,1.86
2023-03-10T06:58:23.996Z,1.95
2023-03-10T07:00:50.807Z,1.90
2023-03-10T07:03:18.562Z,1.95
2023-03-10T07:05:45.308Z,2.04
2023-03-10T07:08:12.129Z,1.99
2023-03-10T07:10:38.902Z,2.04
2023-03-10T07:13:05.783Z,2.06
2023-03-10T07:15:32.640Z,1.99
2023-03-10T07:18:00.279Z,1.87
2023-03-10T07:20:27.189Z,2.02
2023-03-10T07:22:53.925Z,2.03
2023-03-10T07:25:20.585Z,2.04
2023-03-10T07:27:47.420Z,1.96
2023-03-10T07:30:14.474Z,1.96
2023-03-10T07:32:41.428Z,2.03
2023-03-10T07:35:09.178Z,1.94
2023-03-10T07:37:40.607Z,2.02
2023-03-10T07:40:09.758Z,2.11
2023-03-10T07:42:36.454Z,2.06
2023-03-10T07:45:03.756Z,2.06
2023-03-10T07:47:30.814Z,2.09
2023-03-10T07:49:57.534Z,2.13
2023-03-10T07:52:24.558Z,2.23
2023-03-10T07:54:51.450Z,2.15
2023-03-10T07:57:18.249Z,2.28
2023-03-10T07:59:45.080Z,2.31
2023-03-10T08:02:13.660Z,2.28
2023-03-10T08:04:41.381Z,2.30
2023-03-10T08:07:08.605Z,2.26
2023-03-10T08:09:35.685Z,2.24
2023-03-10T08:12:03.501Z,2.15
2023-03-10T08:14:31.850Z,2.22
2023-03-10T08:16:59.469Z,2.20
2023-03-10T08:19:27.648Z,2.20
2023-03-10T08:21:56.063Z,2.30
2023-03-10T08:24:23.293Z,2.46
2023-03-10T08:26:50.266Z,2.46
2023-03-10T08:29:17.555Z,2.68
2023-03-10T08:31:44.692Z,2.63
2023-03-10T08:34:11.566Z,2.58
2023-03-10T08:36:39.124Z,2.70
2023-03-10T08:39:07.563Z,2.73
2023-03-10T08:41:49.805Z,2.64
2023-03-10T08:44:18.659Z,2.70
2023-03-10T08:46:47.770Z,2.74
2023-03-10T08:49:16.930Z,2.73
2023-03-10T08:51:43.927Z,2.69
2023-03-10T08:54:12.655Z,2.62
2023-03-10T08:56:39.548Z,2.60
2023-03-10T08:59:06.312Z,2.61
2023-03-10T09:01:36.722Z,2.80
2023-03-10T09:04:06.098Z,2.72
2023-03-10T09:06:33.697Z,2.81
2023-03-10T09:09:00.777Z,2.76
2023-03-10T09:11:31.835Z,2.73
2023-03-10T09:13:59.555Z,2.67
2023-03-10T09:16:28.694Z,2.63
2023-03-10T09:18:59.392Z,2.84
2023-03-10T09:21:27.542Z,2.76
2023-03-10T09:23:54.412Z,2.69
2023-03-10T09:26:22.074Z,2.78
2023-03-10T09:28:50.958Z,2.80
2023-03-10T09:31:21.976Z,2.91
2023-03-10T09:33:48.930Z,2.89
2023-03-10T09:36:16.499Z,2.74
2023-03-10T09:38:43.271Z,2.88
2023-03-10T09:41:41.535Z,2.95
2023-03-10T09:44:26.068Z,3.03
2023-03-10T09:47:22.898Z,3.10
2023-03-10T09:50:03.266Z,3.14
2023-03-10T09:52:44.441Z,3.20
2023-03-10T09:55:22.469Z,3.23
2023-03-10T09:57:52.039Z,3.26
2023-03-10T10:00:23.783Z,3.28
2023-03-10T10:02:59.958Z,3.25
2023-03-10T10:05:32.989Z,3.16
2023-03-10T10:08:03.071Z,3.18
2023-03-10T10:10:37.007Z,3.23
2023-03-10T10:13:16.149Z,3.27
2023-03-10T10:16:07.371Z,3.23
2023-03-10T10:18:48.497Z,3.26
2023-03-10T10:21:30.651Z,3.21
2023-03-10T10:24:00.444Z,3.10
2023-03-10T10:26:28.154Z,3.12
2023-03-10T10:29:01.182Z,3.03
2023-03-10T10:31:30.943Z,3.24
2023-03-10T10:33:59.067Z,3.25
2023-03-10T10:36:35.205Z,3.11
2023-03-10T10:39:12.708Z,3.22
2023-03-10T10:41:40.066Z,3.21
2023-03-10T10:44:14.571Z,3.33
2023-03-10T10:46:52.604Z,3.34
2023-03-10T10:49:25.988Z,3.51
2023-03-10T10:52:05.161Z,3.58
2023-03-10T10:54:37.913Z,3.53
2023-03-10T10:57:25.876Z,3.58
2023-03-10T10:59:52.757Z,3.72
2023-03-10T11:02:34.495Z,3.77
2023-03-10T11:05:16.532Z,3.53
2023-03-10T11:07:44.577Z,3.40
2023-03-10T11:10:16.534Z,3.55
2023-03-10T11:13:06.474Z,3.61
2023-03-10T11:15:44.883Z,3.54
2023-03-10T11:18:18.997Z,3.64
2023-03-10T11:20:55.358Z,3.70
2023-03-10T11:23:29.600Z,3.72
2023-03-10T11:26:21.217Z,3.52
2023-03-10T11:29:02.183Z,3.38
2023-03-10T11:31:43.916Z,3.40
2023-03-10T11:34:30.336Z,3.64
2023-03-10T11:37:33.208Z,3.94
2023-03-10T11:40:26.653Z,3.98
2023-03-10T11:43:05.509Z,4.08
2023-03-10T11:45:38.987Z,3.95
2023-03-10T11:48:39.074Z,3.83
2023-03-10T11:51:06.211Z,3.85
2023-03-10T11:53:45.063Z,3.73
2023-03-10T11:56:14.975Z,3.58
2023-03-10T11:59:00.131Z,3.60
2023-03-10T12:01:56.846Z,3.78
2023-03-10T12:04:45.164Z,3.64
2023-03-10T12:07:40.202Z,3.72
2023-03-10T12:10:12.890Z,3.86
2023-03-10T12:12:45.507Z,3.79
2023-03-10T12:15:20.155Z,3.95
2023-03-10T12:17:49.285Z,4.02
2023-03-10T12:20:18.902Z,4.19
2023-03-10T12:22:57.519Z,4.30
2023-03-10T12:25:30.391Z,4.23
2023-03-10T12:28:28.909Z,4.17
2023-03-10T12:30:56.513Z,4.25
2023-03-10T12:33:38.645Z,4.22
2023-03-10T12:36:18.138Z,4.26
2023-03-10T12:39:02.252Z,4.30
2023-03-10T12:41:28.883Z,4.08
2023-03-10T12:44:14.981Z,3.95
2023-03-10T12:46:53.169Z,3.95
2023-03-10T12:49:23.262Z,3.96
2023-03-10T12:52:02.279Z,3.91
2023-03-10T12:54:47.201Z,3.98
2023-03-10T12:57:39.970Z,4.01
2023-03-10T13:00:22.080Z,4.04
2023-03-10T13:03:07.497Z,4.13
2023-03-10T13:05:38.860Z,4.17
2023-03-10T13:08:45.681Z,4.23
2023-03-10T13:11:18.648Z,4.12
2023-03-10T13:13:50.372Z,4.05
2023-03-10T13:16:19.992Z,3.97
2023-03-10T13:18:51.966Z,3.89
2023-03-10T13:21:34.222Z,3.75
2023-03-10T13:24:03.185Z,3.73
2023-03-10T13:26:30.640Z,3.78
2023-03-10T13:29:00.814Z,3.70
2023-03-10T13:31:30.525Z,3.69
2023-03-10T13:33:58.466Z,3.91
2023-03-10T13:36:36.735Z,3.78
2023-03-10T13:39:11.918Z,3.86
2023-03-10T13:41:41.213Z,3.78
2023-03-10T13:44:17.586Z,3.85
2023-03-10T13:46:53.763Z,3.67
2023-03-10T13:49:25.463Z,3.65
2023-03-10T13:51:58.689Z,3.73
2023-03-10T13:54:28.579Z,3.76
2023-03-10T13:56:58.692Z,3.81
2023-03-10T13:59:31.713Z,3.69
2023-03-10T14:02:00.944Z,3.67
2023-03-10T14:04:43.149Z,3.58
2023-03-10T14:07:22.854Z,3.66
2023-03-10T14:10:10.419Z,3.90
2023-03-10T14:12:45.047Z,3.84
2023-03-10T14:15:14.914Z,3.75
2023-03-10T14:17:43.366Z,3.54
2023-03-10T14:20:31.608Z,3.65
2023-03-10T14:22:58.940Z,3.60
2023-03-10T14:25:27.240Z,3.72
2023-03-10T14:27:56.956Z,3.69
2023-03-10T14:30:32.265Z,3.73
2023-03-10T14:33:00.974Z,3.69
2023-03-10T14:35:29.303Z,3.78
2023-03-10T14:37:56.256Z,3.67
2023-03-10T14:40:24.876Z,3.66
2023-03-10T14:42:53.060Z,3.56
2023-03-10T14:45:25.376Z,3.63
2023-03-10T14:47:52.619Z,3.60
2023-03-10T14:50:20.738Z,3.64
2023-03-10T14:52:47.436Z,3.77
2023-03-10T14:55:14.638Z,3.60
2023-03-10T14:57:43.150Z,3.59
2023-03-10T15:00:28.280Z,3.66
2023-03-10T15:02:55.208Z,3.71
2023-03-10T15:05:31.902Z,3.62
2023-03-10T15:08:05.498Z,3.60
2023-03-10T15:10:38.614Z,3.66
2023-03-10T15:13:05.588Z,3.50
2023-03-10T15:15:41.929Z,3.47
2023-03-10T15:18:13.486Z,3.33
2023-03-10T15:20:40.513Z,3.45
2023-03-10T15:23:07.559Z,3.44
2023-03-10T15:25:34.243Z,3.43
2023-03-10T15:28:01.192Z,3.49
2023-03-10T15:30:34.038Z,3.49
2023-03-10T15:33:00.942Z,3.39
2023-03-10T15:35:29.311Z,3.35
2023-03-10T15:37:57.068Z,3.34
2023-03-10T15:40:30.111Z,3.34
2023-03-10T15:42:58.679Z,3.19
2023-03-10T15:45:28.136Z,3.26
2023-03-10T15:47:55.436Z,3.29
2023-03-10T15:50:23.059Z,3.18
2023-03-10T15:52:55.667Z,3.10
2023-03-10T15:55:22.875Z,3.12
2023-03-10T15:57:50.193Z,3.16
2023-03-10T16:00:22.113Z,3.29
2023-03-10T16:02:50.001Z,3.16
2023-03-10T16:05:19.494Z,3.12
2023-03-10T16:07:47.204Z,3.16
2023-03-10T16:10:17.087Z,3.12
2023-03-10T16:12:46.294Z,3.12
2023-03-10T16:15:16.292Z,3.10
2023-03-10T16:17:44.431Z,3.09
2023-03-10T16:20:12.845Z,3.14
2023-03-10T16:22:41.487Z,3.01
2023-03-10T16:25:11.826Z,2.98
2023-03-10T16:27:38.604Z,3.03
2023-03-10T16:30:06.414Z,2.99
2023-03-10T16:32:33.884Z,2.98
2023-03-10T16:35:00.877Z,2.95
2023-03-10T16:37:28.735Z,2.98
2023-03-10T16:39:56.174Z,3.02
2023-03-10T16:42:26.468Z,3.11
2023-03-10T16:44:57.086Z,2.96
2023-03-10T16:47:24.408Z,3.04
2023-03-10T16:49:51.194Z,3.10
2023-03-10T16:52:18.380Z,3.05
2023-03-10T16:54:46.620Z,3.01
2023-03-10T16:57:14.869Z,3.03
2023-03-10T16:59:42.805Z,3.09
2023-03-10T17:02:15.412Z,3.16
2023-03-10T17:04:46.441Z,3.14
2023-03-10T17:07:14.157Z,3.20
2023-03-10T17:09:41.127Z,3.19
2023-03-10T17:12:08.045Z,3.14
2023-03-10T17:14:34.881Z,3.01
2023-03-10T17:17:01.752Z,3.19
2023-03-10T17:19:30.181Z,3.19
2023-03-10T17:21:58.282Z,2.95
2023-03-10T17:24:25.946Z,3.21
2023-03-10T17:26:53.460Z,2.99
2023-03-10T17:29:20.941Z,3.10
2023-03-10T17:31:50.186Z,3.19
2023-03-10T17:34:18.058Z,3.13
2023-03-10T17:36:45.100Z,3.02
2023-03-10T17:39:18.993Z,2.98
2023-03-10T17:41:46.444Z,2.96
2023-03-10T17:44:13.218Z,3.06
2023-03-10T17:46:41.103Z,3.07
2023-03-10T17:49:11.833Z,3.00
2023-03-10T17:51:39.617Z,3.04
2023-03-10T17:54:07.409Z,2.79
2023-03-10T17:56:34.261Z,2.94
2023-03-10T17:59:01.019Z,2.92
2023-03-10T18:01:29.884Z,3.03
2023-03-10T18:03:58.591Z,3.11
2023-03-10T18:06:28.491Z,3.11
2023-03-10T18:08:57.034Z,3.06
2023-03-10T18:11:25.681Z,3.04
2023-03-10T18:13:52.839Z,2.97
2023-03-10T18:16:27.754Z,3.03
2023-03-10T18:18:56.030Z,3.03
2023-03-10T18:21:25.521Z,3.04
2023-03-10T18:23:53.046Z,3.05
2023-03-10T18:26:22.760Z,2.95
2023-03-10T18:28:49.505Z,2.85
2023-03-10T18:31:19.642Z,2.85
2023-03-10T18:33:46.908Z,3.08
2023-03-10T18:36:14.774Z,3.05
2023-03-10T18:38:41.997Z,3.01
2023-03-10T18:41:08.899Z,2.83
2023-03-10T18:43:35.887Z,3.02
2023-03-10T18:46:03.353Z,2.89
2023-03-10T18:48:30.250Z,2.99
2023-03-10T18:50:59.255Z,2.93
2023-03-10T18:53:27.598Z,2.94
2023-03-10T18:55:54.429Z,2.91
2023-03-10T18:58:22.118Z,2.95
2023-03-10T19:00:50.525Z,2.91
2023-03-10T19:03:18.400Z,2.98
2023-03-10T19:05:45.493Z,2.90
2023-03-10T19:08:14.345Z,2.94
2023-03-10T19:10:41.088Z,2.83
2023-03-10T19:13:08.022Z,2.95
2023-03-10T19:15:37.080Z,2.93
2023-03-10T19:18:04.225Z,2.89
2023-03-10T19:20:31.075Z,2.88
2023-03-10T19:22:57.843Z,2.84
2023-03-10T19:25:24.650Z,2.84
2023-03-10T19:27:51.475Z,2.83
2023-03-10T19:30:20.579Z,2.58
2023-03-10T19:32:48.001Z,2.72
2023-03-10T19:35:15.766Z,2.67
2023-03-10T19:37:46.170Z,2.55
2023-03-10T19:40:17.296Z,2.58
2023-03-10T19:42:44.549Z,2.50
2023-03-10T19:45:13.270Z,2.62
2023-03-10T19:47:41.609Z,2.50
2023-03-10T19:50:12.310Z,2.67
2023-03-10T19:52:46.803Z,2.66
2023-03-10T19:55:19.971Z,2.59
2023-03-10T19:57:48.716Z,2.65
2023-03-10T20:00:18.861Z,2.63
2023-03-10T20:02:46.336Z,2.63
2023-03-10T20:05:14.683Z,2.67
2023-03-10T20:07:45.095Z,2.63
2023-03-10T20:10:12.761Z,2.57
2023-03-10T20:12:39.746Z,2.55
2023-03-10T20:15:08.410Z,2.47
2023-03-10T20:17:35.523Z,2.47
2023-03-10T20:20:09.906Z,2.34
2023-03-10T20:22:39.000Z,2.42
2023-03-10T20:25:07.267Z,2.48
2023-03-10T20:27:34.510Z,2.33
2023-03-10T20:30:01.712Z,2.19
2023-03-10T20:32:28.733Z,2.34
2023-03-10T20:34:55.435Z,2.45
2023-03-10T20:37:22.158Z,2.57
2023-03-10T20:39:48.909Z,2.25
2023-03-10T20:42:15.638Z,2.27
2023-03-10T20:44:42.406Z,2.19
2023-03-10T20:47:09.146Z,2.28
2023-03-10T20:49:35.918Z,2.38
2023-03-10T20:52:03.258Z,2.07
2023-03-10T20:54:30.571Z,1.99
2023-03-10T20:57:00.613Z,2.05
2023-03-10T20:59:28.340Z,1.84
2023-03-10T21:01:54.976Z,1.81
2023-03-10T21:04:21.864Z,1.93
2023-03-10T21:06:48.615Z,1.63
2023-03-10T21:09:15.305Z,1.62
2023-03-10T21:11:42.125Z,1.82
2023-03-10T21:14:09.030Z,1.64
2023-03-10T21:16:41.601Z,1.63
2023-03-10T21:19:09.690Z,1.71
2023-03-10T21:21:36.587Z,1.44
2023-03-10T21:24:04.813Z,1.50
2023-03-10T21:26:32.089Z,1.36
2023-03-10T21:29:00.127Z,1.30
2023-03-10T21:31:26.929Z,1.33
2023-03-10T21:33:53.854Z,1.39
2023-03-10T21:36:23.743Z,1.30
2023-03-10T21:38:51.036Z,1.17
2023-03-10T21:41:19.926Z,1.21
2023-03-10T21:43:46.626Z,1.14
2023-03-10T21:46:13.501Z,1.10
2023-03-10T21:48:40.228Z,1.20
2023-03-10T21:51:09.806Z,1.14
2023-03-10T21:53:36.850Z,1.14
2023-03-10T21:56:03.789Z,1.10
2023-03-10T21:58:30.632Z,1.10
2023-03-10T22:00:57.473Z,1.12
2023-03-10T22:03:24.139Z,1.10
2023-03-10T22:05:50.862Z,1.11
2023-03-10T22:08:17.830Z,1.09
2023-03-10T22:10:45.607Z,1.03
2023-03-10T22:13:12.418Z,1.08
2023-03-10T22:15:39.682Z,1.09
2023-03-10T22:18:06.728Z,1.07
2023-03-10T22:20:33.471Z,1.18
2023-03-10T22:23:00.267Z,1.26
2023-03-10T22:25:26.991Z,1.32
2023-03-10T22:27:55.943Z,1.37
2023-03-10T22:30:24.975Z,1.49
2023-03-10T22:32:52.349Z,1.61
2023-03-10T22:35:19.494Z,1.69
2023-03-10T22:37:53.300Z,1.73
2023-03-10T22:40:23.264Z,1.69
2023-03-10T22:42:50.035Z,1.65
2023-03-10T22:45:29.438Z,1.61
2023-03-10T22:47:59.018Z,1.55
2023-03-10T22:50:37.757Z,1.60
2023-03-10T22:53:08.170Z,1.59
2023-03-10T22:55:35.761Z,1.58
2023-03-10T22:58:04.493Z,1.54
2023-03-10T23:00:32.274Z,1.54
2023-03-10T23:02:59.119Z,1.48
2023-03-10T23:05:26.981Z,1.60
2023-03-10T23:07:54.009Z,1.56
2023-03-10T23:10:29.907Z,1.55
2023-03-10T23:12:59.366Z,1.56
2023-03-10T23:15:28.797Z,1.51
2023-03-10T23:17:56.520Z,1.49
2023-03-10T23:20:27.399Z,1.69
2023-03-10T23:22:56.741Z,1.60
2023-03-10T23:25:30.574Z,1.43
2023-03-10T23:27:57.698Z,1.52
2023-03-10T23:30:25.923Z,1.48
2023-03-10T23:32:53.433Z,1.54
2023-03-10T23:35:24.044Z,1.46
2023-03-10T23:37:51.150Z,1.41
2023-03-10T23:40:20.215Z,1.44
2023-03-10T23:42:47.293Z,1.33
2023-03-10T23:45:18.166Z,1.39
2023-03-10T23:47:46.076Z,1.43
2023-03-10T23:50:32.940Z,1.40
2023-03-10T23:53:00.973Z,1.48
2023-03-10T23:55:32.103Z,1.51
2023-03-10T23:57:59.140Z,1.41
